Etusivu
METAR-TAF:

METAR-TAF

Lentoasemat :

Praha, Tšekki

Václav Havelin kansainvälinen lentoasema

Leveyspiiri: 50-06N, Pituuspiiri: 014-15E, korkeus merenpinnasta: 365 m

Tämänhetkinen sää

Tämä raportti tehtiin 26 minuuttia sitten, kello 23.30 UTC
Tuuli 5 kn etelästä
Lämpötila 13°C
Kosteus 67%
Ilmanpaine 1021 hPa
Näkyvyys 10 km tai enemmän
ei pilviä alle 1500 m:ssä eikä cumulonimbus-pilviä

METAR: LKPR 202330Z 19005KT CAVOK 13/07 Q1021 NOSIG

Aika: 01:56 (23:56 UTC)

Sääennuste

Tämä raportti tehtiin 56 minuuttia sitten, kello 23.00 UTC
Ennuste voimassa 21. päivästä klo 00 UTC - 22. päivään klo 06 UTC
Tuuli 4 kn etelästä
Näkyvyys 10 km tai enemmän
ei pilviä alle 1500 m:ssä eikä cumulonimbus-pilviä
Tulossa
21. päivästä klo 07 UTC - 21. päivään klo 09 UTC
Tuuli 6 kn pohjoisesta
Ajoittain
21. päivästä klo 10 UTC - 21. päivään klo 18 UTC
Tuuli 12 kn pohjoisesta/koillisesta

TAF: LKPR 202300Z 2100/2206 19004KT CAVOK BECMG 2107/2109 35006KT TEMPO 2110/2118 02012KT

Säähavainnot ja -ennusteet yli 4000 lentoasemalta (METAR- ja TAF-raportit).

Käytössä olevat sääasemat on merkitty karttaan keltaisilla ja punaisilla pisteillä.

Aseta hiiri pisteen päälle nähdäksesi sääaseman nimen.

Klikkaa sitten nähdäksesi säähavainnot ja -ennusteet.

Kartan vaihtaminen: klikkaa mustalla rastilla varustettuja vihreitä pisteitä, niin voit zoomata sisään; viivalla varustettua vihreää pistettä, niin voit zoomata ulos tai vihreitä nuolia, niin pääset viereisille kartoille.


METAR-TAF: